»·PEaware :: N733TR KDEW-KELN

N733TR :: KDEW-KELN

FLIGHT INFORMATION

Flight Status: Arrived
Operator: Privately registered:
United States
More flights under this callsign
Pilot: Jonathan B. (787)
Aircraft: Unknown
(LEG2)
More flights by this aircraft type
Origin: KDEW Deer Park
United States
Destination: KELN Bowers
United States
More flights between these airports :: More routes between these airports
Route:
File this flight plan on PilotEdge
Remarks: wa alphabet
Altitude:
(Current/Filed)
10,500ft
Speed:
(Current/Filed)
220kts
Departed: 09-Aug-20 11:35 AM
Arrived: 09-Aug-20 12:14 PM
Distance/Time
Traveled:
138nm/0:39
Distance/Time
To Go:
Arrived

Flight Plot

Page will automatically refresh every two minutes.

Flight plan parsing failed; only flown route is shown


Map Options




Map Legend


Flown Route
Filed Route
Departure Airport
Arrival Airport
Navaid (VOR, NDB)
Fix

Horizontal Profiles

Position Reports

Time Latitude Longitude Heading Altitude Ground
Speed
09-Aug-20 11:25 47.965299 -117.433809 359 2211ft 0kts
09-Aug-20 11:26 47.965369 -117.433802 8 2211ft 4kts
09-Aug-20 11:27 47.967938 -117.433343 358 2211ft 11kts
09-Aug-20 11:28 47.971544 -117.433340 0 2211ft 13kts
09-Aug-20 11:29 47.975223 -117.433361 1 2211ft 13kts
09-Aug-20 11:30 47.976864 -117.433342 91 2211ft 0kts
09-Aug-20 11:31 47.976864 -117.433342 91 2211ft 0kts
09-Aug-20 11:32 47.976864 -117.433342 90 2211ft 0kts
09-Aug-20 11:33 47.976876 -117.431968 91 2211ft 7kts
09-Aug-20 11:34 47.957270 -117.437512 246 3317ft 112kts
09-Aug-20 11:35 47.949950 -117.493396 260 5476ft 153kts
09-Aug-20 11:36 47.932435 -117.552780 245 7800ft 162kts
09-Aug-20 11:37 47.914794 -117.612751 250 10061ft 155kts
09-Aug-20 11:38 47.896586 -117.676774 249 11108ft 205kts
09-Aug-20 11:39 47.870874 -117.766775 249 10696ft 256kts
09-Aug-20 11:40 47.842061 -117.867143 249 10508ft 262kts
09-Aug-20 11:41 47.813231 -117.967169 249 10508ft 261kts
09-Aug-20 11:42 47.784371 -118.066887 249 10508ft 261kts
09-Aug-20 11:43 47.755211 -118.166836 248 10507ft 261kts
09-Aug-20 11:44 47.726245 -118.266447 249 10508ft 261kts
09-Aug-20 11:45 47.697253 -118.365481 249 10504ft 261kts
09-Aug-20 11:46 47.667951 -118.465098 249 10492ft 260kts
09-Aug-20 11:47 47.638984 -118.563165 249 10481ft 259kts
09-Aug-20 11:48 47.610188 -118.660275 248 10480ft 257kts
09-Aug-20 11:49 47.581313 -118.757270 248 10481ft 255kts
09-Aug-20 11:50 47.552332 -118.854231 248 10481ft 256kts
09-Aug-20 11:51 47.523207 -118.951299 248 10481ft 258kts
09-Aug-20 11:52 47.493725 -119.049169 248 10481ft 260kts
09-Aug-20 11:53 47.463872 -119.147869 248 10481ft 261kts
09-Aug-20 11:54 47.434159 -119.245726 248 10481ft 261kts
09-Aug-20 11:55 47.404322 -119.343606 248 10481ft 261kts
09-Aug-20 11:56 47.374420 -119.441314 248 10481ft 260kts
09-Aug-20 11:57 47.344530 -119.538606 248 10481ft 261kts
09-Aug-20 11:58 47.314266 -119.636728 248 10481ft 260kts
09-Aug-20 11:59 47.284218 -119.733915 247 9736ft 250kts
09-Aug-20 12:00 47.256242 -119.823983 247 8632ft 235kts
09-Aug-20 12:01 47.229124 -119.910837 247 7530ft 231kts
09-Aug-20 12:02 47.202049 -119.997235 247 7066ft 239kts
09-Aug-20 12:03 47.174690 -120.084332 247 7834ft 226kts
09-Aug-20 12:04 47.148048 -120.168906 247 8292ft 237kts
09-Aug-20 12:05 47.119542 -120.259067 247 8295ft 247kts
09-Aug-20 12:06 47.093726 -120.340609 247 5827ft 209kts
09-Aug-20 12:07 47.069375 -120.417083 247 3267ft 188kts
09-Aug-20 12:08 47.049495 -120.479210 247 2786ft 109kts
09-Aug-20 12:09 47.033345 -120.529501 244 2807ft 146kts
09-Aug-20 12:10 47.008231 -120.518543 116 2839ft 116kts
09-Aug-20 12:11 47.017780 -120.493476 338 2684ft 119kts
09-Aug-20 12:12 47.031777 -120.525861 270 1769ft 74kts
09-Aug-20 12:13 47.030549 -120.533851 204 1765ft 7kts
09-Aug-20 12:14 47.029887 -120.533999 334 1765ft 0kts
09-Aug-20 12:15 47.029888 -120.533999 341 1765ft 0kts
09-Aug-20 12:16 47.029888 -120.533999 341 1765ft 0kts
09-Aug-20 12:17 47.029889 -120.533999 343 1765ft 0kts

Navigation Log

Ident Type
Flight plan parsing failed, navigation log unavailable